createdAt,value
2016-10-23T00:00:26.943Z,998.04
2016-10-23T00:01:26.954Z,998.01
2016-10-23T00:02:26.979Z,998.03
2016-10-23T00:03:26.988Z,998.01
2016-10-23T00:04:27.003Z,998
2016-10-23T00:05:27.016Z,998.01
2016-10-23T00:06:27.044Z,998.01
2016-10-23T00:07:27.050Z,998.01
2016-10-23T00:08:27.063Z,997.97
2016-10-23T00:09:27.081Z,998
2016-10-23T00:10:27.092Z,998.03
2016-10-23T00:11:27.113Z,998.01
2016-10-23T00:12:27.124Z,997.99
2016-10-23T00:13:27.139Z,998
2016-10-23T00:14:27.159Z,998
2016-10-23T00:15:27.176Z,998.04
2016-10-23T00:16:27.188Z,998.07
2016-10-23T00:17:27.200Z,998.06
2016-10-23T00:18:27.220Z,998.05
2016-10-23T00:19:27.229Z,998.06
2016-10-23T00:20:27.247Z,998.07
2016-10-23T00:21:27.269Z,998.08
2016-10-23T00:22:27.283Z,998.06
2016-10-23T00:23:27.300Z,998.06
2016-10-23T00:24:27.308Z,998.06
2016-10-23T00:25:27.329Z,998.04
2016-10-23T00:26:27.344Z,998.04
2016-10-23T00:27:27.360Z,998.01
2016-10-23T00:28:27.375Z,998.05
2016-10-23T00:29:27.394Z,997.99
2016-10-23T00:30:27.403Z,998
2016-10-23T00:31:27.423Z,998.01
2016-10-23T00:32:27.434Z,998.03
2016-10-23T00:33:27.449Z,998.01
2016-10-23T00:34:27.468Z,997.99
2016-10-23T00:35:27.483Z,998.01
2016-10-23T00:36:27.507Z,997.99
2016-10-23T00:37:27.509Z,997.96
2016-10-23T00:38:27.533Z,997.96
2016-10-23T00:39:27.540Z,997.99
2016-10-23T00:40:27.562Z,997.96
2016-10-23T00:41:27.580Z,997.96
2016-10-23T00:42:27.592Z,997.9
2016-10-23T00:43:27.605Z,997.92
2016-10-23T00:44:27.631Z,997.93
2016-10-23T00:45:27.639Z,997.92
2016-10-23T00:46:27.650Z,997.94
2016-10-23T00:47:27.669Z,997.91
2016-10-23T00:48:27.687Z,997.93
2016-10-23T00:49:27.704Z,997.92
2016-10-23T00:50:27.717Z,997.88
2016-10-23T00:51:27.731Z,997.93
2016-10-23T00:52:27.747Z,997.89
2016-10-23T00:53:27.765Z,997.85
2016-10-23T00:54:27.778Z,997.91
2016-10-23T00:55:27.789Z,997.9
2016-10-23T00:56:27.807Z,997.89
2016-10-23T00:57:27.823Z,997.9
2016-10-23T00:58:27.842Z,997.9
2016-10-23T00:59:27.850Z,997.88
2016-10-23T01:00:27.871Z,997.92
2016-10-23T01:01:27.886Z,997.89
2016-10-23T01:02:27.902Z,997.88
2016-10-23T01:03:27.915Z,997.9
2016-10-23T01:04:27.934Z,997.94
2016-10-23T01:05:27.946Z,997.9
2016-10-23T01:06:27.968Z,997.92
2016-10-23T01:07:27.981Z,997.89
2016-10-23T01:08:28.003Z,997.87
2016-10-23T01:09:28.003Z,997.88
2016-10-23T01:10:28.027Z,997.88
2016-10-23T01:11:28.044Z,997.88
2016-10-23T01:12:28.052Z,997.91
2016-10-23T01:13:28.074Z,997.86
2016-10-23T01:14:28.086Z,997.86
2016-10-23T01:15:28.101Z,997.87
2016-10-23T01:16:28.120Z,997.83
2016-10-23T01:17:28.134Z,997.88
2016-10-23T01:18:28.152Z,997.85
2016-10-23T01:19:28.158Z,997.83
2016-10-23T01:20:28.182Z,997.81
2016-10-23T01:21:28.194Z,997.78
2016-10-23T01:22:28.205Z,997.79
2016-10-23T01:23:28.228Z,997.81
2016-10-23T01:24:28.247Z,997.78
2016-10-23T01:25:28.256Z,997.76
2016-10-23T01:26:28.283Z,997.73
2016-10-23T01:27:28.285Z,997.76
2016-10-23T01:28:28.306Z,997.75
2016-10-23T01:29:28.322Z,997.73
2016-10-23T01:30:28.335Z,997.73
2016-10-23T01:31:28.352Z,997.76
2016-10-23T01:32:28.363Z,997.75
2016-10-23T01:33:28.382Z,997.74
2016-10-23T01:34:28.399Z,997.77
2016-10-23T01:35:28.410Z,997.76
2016-10-23T01:36:28.430Z,997.72
2016-10-23T01:37:28.440Z,997.75
2016-10-23T01:38:28.463Z,997.7
2016-10-23T01:39:28.475Z,997.66
2016-10-23T01:40:28.495Z,997.7
2016-10-23T01:41:28.507Z,997.66
2016-10-23T01:42:28.521Z,997.7
2016-10-23T01:43:28.537Z,997.66
2016-10-23T01:44:28.549Z,997.68
2016-10-23T01:45:28.567Z,997.68
2016-10-23T01:46:28.585Z,997.71
2016-10-23T01:47:28.597Z,997.66
2016-10-23T01:48:28.610Z,997.68
2016-10-23T01:49:28.628Z,997.63
2016-10-23T01:50:28.644Z,997.66
2016-10-23T01:51:28.665Z,997.63
2016-10-23T01:52:28.672Z,997.64
2016-10-23T01:53:28.691Z,997.61
2016-10-23T01:54:28.705Z,997.63
2016-10-23T01:55:28.718Z,997.63
2016-10-23T01:56:28.739Z,997.61
2016-10-23T01:57:28.755Z,997.64
2016-10-23T01:58:28.764Z,997.64
2016-10-23T01:59:28.781Z,997.61
2016-10-23T02:00:28.796Z,997.63
2016-10-23T02:01:28.816Z,997.6
2016-10-23T02:02:28.830Z,997.57
2016-10-23T02:03:28.847Z,997.57
2016-10-23T02:04:28.867Z,997.57
2016-10-23T02:05:28.880Z,997.56
2016-10-23T02:06:28.890Z,997.53
2016-10-23T02:07:28.910Z,997.51
2016-10-23T02:08:28.922Z,997.53
2016-10-23T02:09:28.939Z,997.49
2016-10-23T02:10:28.954Z,997.49
2016-10-23T02:11:28.965Z,997.51
2016-10-23T02:12:28.987Z,997.5
2016-10-23T02:13:29.005Z,997.49
2016-10-23T02:14:29.014Z,997.51
2016-10-23T02:15:29.036Z,997.51
2016-10-23T02:16:29.043Z,997.51
2016-10-23T02:17:29.065Z,997.52
2016-10-23T02:18:29.080Z,997.56
2016-10-23T02:19:29.090Z,997.53
2016-10-23T02:20:29.112Z,997.58
2016-10-23T02:21:29.126Z,997.55
2016-10-23T02:22:29.144Z,997.58
2016-10-23T02:23:29.159Z,997.57
2016-10-23T02:24:29.173Z,997.62
2016-10-23T02:25:29.186Z,997.56
2016-10-23T02:26:29.202Z,997.54
2016-10-23T02:27:29.217Z,997.59
2016-10-23T02:28:29.232Z,997.6
2016-10-23T02:29:29.249Z,997.55
2016-10-23T02:30:29.263Z,997.58
2016-10-23T02:31:29.280Z,997.62
2016-10-23T02:32:29.292Z,997.52
2016-10-23T02:33:29.308Z,997.6
2016-10-23T02:34:29.327Z,997.58
2016-10-23T02:35:29.342Z,997.6
2016-10-23T02:36:29.357Z,997.6
2016-10-23T02:37:29.375Z,997.59
2016-10-23T02:38:29.381Z,997.6
2016-10-23T02:39:29.403Z,997.6
2016-10-23T02:40:29.415Z,997.62
2016-10-23T02:41:29.435Z,997.6
2016-10-23T02:42:29.452Z,997.59
2016-10-23T02:43:29.459Z,997.6
2016-10-23T02:44:29.483Z,997.57
2016-10-23T02:45:29.495Z,997.54
2016-10-23T02:46:29.512Z,997.59
2016-10-23T02:47:29.526Z,997.56
2016-10-23T02:48:29.542Z,997.56
2016-10-23T02:49:29.552Z,997.55
2016-10-23T02:50:29.569Z,997.55
2016-10-23T02:51:29.586Z,997.55
2016-10-23T02:52:29.603Z,997.58
2016-10-23T02:53:29.620Z,997.54
2016-10-23T02:54:29.630Z,997.55
2016-10-23T02:55:29.649Z,997.53
2016-10-23T02:56:29.675Z,997.53
2016-10-23T02:57:29.680Z,997.53
2016-10-23T02:58:29.707Z,997.56
2016-10-23T02:59:29.707Z,997.54
2016-10-23T03:00:29.728Z,997.53
2016-10-23T03:01:29.743Z,997.53
2016-10-23T03:02:29.755Z,997.54
2016-10-23T03:03:29.775Z,997.54
2016-10-23T03:04:29.785Z,997.51
2016-10-23T03:05:29.802Z,997.45
2016-10-23T03:06:29.813Z,997.48
2016-10-23T03:07:29.832Z,997.47
2016-10-23T03:08:29.850Z,997.49
2016-10-23T03:09:29.861Z,997.45
2016-10-23T03:10:29.878Z,997.47
2016-10-23T03:11:29.893Z,997.43
2016-10-23T03:12:29.910Z,997.49
2016-10-23T03:13:29.929Z,997.48
2016-10-23T03:14:29.942Z,997.5
2016-10-23T03:15:29.958Z,997.5
2016-10-23T03:16:29.973Z,997.49
2016-10-23T03:17:29.984Z,997.49
2016-10-23T03:18:30.003Z,997.47
2016-10-23T03:19:30.016Z,997.49
2016-10-23T03:20:30.039Z,997.52
2016-10-23T03:21:30.048Z,997.51
2016-10-23T03:22:30.067Z,997.51
2016-10-23T03:23:30.074Z,997.46
2016-10-23T03:24:30.093Z,997.44
2016-10-23T03:25:30.109Z,997.44
2016-10-23T03:26:30.120Z,997.44
2016-10-23T03:27:30.135Z,997.44
2016-10-23T03:28:30.155Z,997.44
2016-10-23T03:29:30.172Z,997.43
2016-10-23T03:30:30.187Z,997.43
2016-10-23T03:31:30.202Z,997.44
2016-10-23T03:32:30.211Z,997.48
2016-10-23T03:33:30.232Z,997.48
2016-10-23T03:34:30.247Z,997.43
2016-10-23T03:35:30.256Z,997.5
2016-10-23T03:36:30.272Z,997.5
2016-10-23T03:37:30.292Z,997.46
2016-10-23T03:38:30.307Z,997.48
2016-10-23T03:39:30.318Z,997.5
2016-10-23T03:40:30.347Z,997.48
2016-10-23T03:41:30.352Z,997.49
2016-10-23T03:42:30.364Z,997.47
2016-10-23T03:43:30.383Z,997.47
2016-10-23T03:44:30.395Z,997.43
2016-10-23T03:45:30.412Z,997.45
2016-10-23T03:46:30.425Z,997.46
2016-10-23T03:47:30.437Z,997.44
2016-10-23T03:48:30.463Z,997.4
2016-10-23T03:49:30.469Z,997.37
2016-10-23T03:50:30.484Z,997.41
2016-10-23T03:51:30.499Z,997.43
2016-10-23T03:52:30.519Z,997.42
2016-10-23T03:53:30.526Z,997.43
2016-10-23T03:54:30.544Z,997.42
2016-10-23T03:55:30.565Z,997.47
2016-10-23T03:56:30.578Z,997.45
2016-10-23T03:57:30.593Z,997.5
2016-10-23T03:58:30.605Z,997.46
2016-10-23T03:59:30.620Z,997.46
2016-10-23T04:01:30.851Z,997.47
2016-10-23T04:02:30.662Z,997.47
2016-10-23T04:03:30.674Z,997.43
2016-10-23T04:04:30.693Z,997.45
2016-10-23T04:05:30.709Z,997.42
2016-10-23T04:06:30.717Z,997.42
2016-10-23T04:07:30.734Z,997.42
2016-10-23T04:08:30.747Z,997.43
2016-10-23T04:09:30.764Z,997.39
2016-10-23T04:10:30.783Z,997.41
2016-10-23T04:11:30.795Z,997.36
2016-10-23T04:12:30.814Z,997.36
2016-10-23T04:13:30.824Z,997.38
2016-10-23T04:14:30.842Z,997.39
2016-10-23T04:15:30.859Z,997.41
2016-10-23T04:16:30.867Z,997.4
2016-10-23T04:17:30.888Z,997.41
2016-10-23T04:18:30.898Z,997.38
2016-10-23T04:19:30.914Z,997.4
2016-10-23T04:20:30.934Z,997.39
2016-10-23T04:21:30.951Z,997.38
2016-10-23T04:22:30.956Z,997.37
2016-10-23T04:23:30.978Z,997.38
2016-10-23T04:24:30.996Z,997.38
2016-10-23T04:25:31.009Z,997.38
2016-10-23T04:26:31.020Z,997.38
2016-10-23T04:27:31.034Z,997.36
2016-10-23T04:28:31.052Z,997.34
2016-10-23T04:29:31.065Z,997.35
2016-10-23T04:30:31.079Z,997.36
2016-10-23T04:31:31.093Z,997.37
2016-10-23T04:32:31.112Z,997.36
2016-10-23T04:33:31.127Z,997.36
2016-10-23T04:34:31.143Z,997.37
2016-10-23T04:35:31.156Z,997.37
2016-10-23T04:36:31.170Z,997.33
2016-10-23T04:37:31.183Z,997.32
2016-10-23T04:38:31.201Z,997.31
2016-10-23T04:39:31.221Z,997.34
2016-10-23T04:40:31.228Z,997.31
2016-10-23T04:41:31.242Z,997.32
2016-10-23T04:42:31.257Z,997.29
2016-10-23T04:43:31.273Z,997.33
2016-10-23T04:44:31.290Z,997.32
2016-10-23T04:45:31.306Z,997.29
2016-10-23T04:46:31.319Z,997.3
2016-10-23T04:47:31.327Z,997.29
2016-10-23T04:48:31.350Z,997.32
2016-10-23T04:49:31.362Z,997.27
2016-10-23T04:50:31.378Z,997.28
2016-10-23T04:51:31.392Z,997.31
2016-10-23T04:52:31.411Z,997.3
2016-10-23T04:53:31.422Z,997.34
2016-10-23T04:54:31.443Z,997.33
2016-10-23T04:55:31.450Z,997.31
2016-10-23T04:56:31.471Z,997.32
2016-10-23T04:57:31.481Z,997.31
2016-10-23T04:58:31.493Z,997.28
2016-10-23T04:59:31.513Z,997.28
2016-10-23T05:00:31.525Z,997.28
2016-10-23T05:01:31.542Z,997.25
2016-10-23T05:02:31.554Z,997.28
2016-10-23T05:03:31.568Z,997.26
2016-10-23T05:04:31.584Z,997.31
2016-10-23T05:05:31.597Z,997.26
2016-10-23T05:06:31.623Z,997.27
2016-10-23T05:07:31.630Z,997.29
2016-10-23T05:08:31.651Z,997.31
2016-10-23T05:09:31.660Z,997.31
2016-10-23T05:10:31.674Z,997.32
2016-10-23T05:11:31.692Z,997.33
2016-10-23T05:12:31.701Z,997.34
2016-10-23T05:13:31.713Z,997.33
2016-10-23T05:14:31.732Z,997.3
2016-10-23T05:15:31.744Z,997.32
2016-10-23T05:16:31.767Z,997.34
2016-10-23T05:17:31.778Z,997.3
2016-10-23T05:18:31.803Z,997.33
2016-10-23T05:19:31.807Z,997.32
2016-10-23T05:20:31.818Z,997.29
2016-10-23T05:21:31.839Z,997.25
2016-10-23T05:22:31.851Z,997.28
2016-10-23T05:23:31.866Z,997.28
2016-10-23T05:24:31.878Z,997.26
2016-10-23T05:25:31.889Z,997.27
2016-10-23T05:26:31.907Z,997.26
2016-10-23T05:27:31.920Z,997.24
2016-10-23T05:28:31.938Z,997.26
2016-10-23T05:29:31.955Z,997.27
2016-10-23T05:30:31.971Z,997.27
2016-10-23T05:31:31.983Z,997.23
2016-10-23T05:32:31.998Z,997.27
2016-10-23T05:33:32.009Z,997.28
2016-10-23T05:34:32.024Z,997.24
2016-10-23T05:35:32.041Z,997.2
2016-10-23T05:36:32.067Z,997.23
2016-10-23T05:37:32.073Z,997.25
2016-10-23T05:38:32.081Z,997.27
2016-10-23T05:39:32.095Z,997.29
2016-10-23T05:40:32.111Z,997.27
2016-10-23T05:41:32.131Z,997.28
2016-10-23T05:42:32.143Z,997.29
2016-10-23T05:43:32.158Z,997.26
2016-10-23T05:44:32.170Z,997.3
2016-10-23T05:45:32.191Z,997.26
2016-10-23T05:46:32.201Z,997.26
2016-10-23T05:47:32.215Z,997.28
2016-10-23T05:48:32.231Z,997.29
2016-10-23T05:49:32.244Z,997.29
2016-10-23T05:50:32.262Z,997.31
2016-10-23T05:51:32.277Z,997.32
2016-10-23T05:52:32.295Z,997.34
2016-10-23T05:53:32.304Z,997.3
2016-10-23T05:54:32.319Z,997.31
2016-10-23T05:55:32.332Z,997.36
2016-10-23T05:56:32.351Z,997.33
2016-10-23T05:57:32.362Z,997.33
2016-10-23T05:58:32.379Z,997.32
2016-10-23T05:59:32.391Z,997.37
2016-10-23T06:00:32.415Z,997.32
2016-10-23T06:01:32.418Z,997.35
2016-10-23T06:02:32.439Z,997.4
2016-10-23T06:03:32.453Z,997.36
2016-10-23T06:04:32.460Z,997.36
2016-10-23T06:05:32.481Z,997.34
2016-10-23T06:06:32.497Z,997.32
2016-10-23T06:07:32.511Z,997.31
2016-10-23T06:08:32.525Z,997.32
2016-10-23T06:09:32.541Z,997.34
2016-10-23T06:10:32.551Z,997.34
2016-10-23T06:11:32.568Z,997.3
2016-10-23T06:12:32.591Z,997.38
2016-10-23T06:13:32.596Z,997.37
2016-10-23T06:14:32.612Z,997.39
2016-10-23T06:15:32.628Z,997.41
2016-10-23T06:16:32.639Z,997.41
2016-10-23T06:17:32.661Z,997.45
2016-10-23T06:18:32.671Z,997.39
2016-10-23T06:19:32.681Z,997.37
2016-10-23T06:20:32.702Z,997.45
2016-10-23T06:21:32.711Z,997.46
2016-10-23T06:22:32.729Z,997.46
2016-10-23T06:23:32.740Z,997.5
2016-10-23T06:24:32.755Z,997.46
2016-10-23T06:25:32.770Z,997.47
2016-10-23T06:26:32.784Z,997.48
2016-10-23T06:27:32.802Z,997.54
2016-10-23T06:28:32.817Z,997.52
2016-10-23T06:29:32.832Z,997.47
2016-10-23T06:30:32.851Z,997.5
2016-10-23T06:31:32.859Z,997.55
2016-10-23T06:32:32.872Z,997.51
2016-10-23T06:33:32.891Z,997.57
2016-10-23T06:34:32.902Z,997.61
2016-10-23T06:35:32.918Z,997.61
2016-10-23T06:36:32.937Z,997.57
2016-10-23T06:37:32.943Z,997.61
2016-10-23T06:38:32.956Z,997.65
2016-10-23T06:39:32.976Z,997.61
2016-10-23T06:40:32.986Z,997.62
2016-10-23T06:41:33.007Z,997.65
2016-10-23T06:42:33.027Z,997.66
2016-10-23T06:43:33.028Z,997.67
2016-10-23T06:44:33.052Z,997.65
2016-10-23T06:45:33.064Z,997.67
2016-10-23T06:46:33.081Z,997.64
2016-10-23T06:47:33.092Z,997.67
2016-10-23T06:48:33.107Z,997.68
2016-10-23T06:49:33.123Z,997.62
2016-10-23T06:50:33.136Z,997.67
2016-10-23T06:51:33.152Z,997.65
2016-10-23T06:52:33.162Z,997.64
2016-10-23T06:53:33.179Z,997.67
2016-10-23T06:54:33.194Z,997.69
2016-10-23T06:55:33.205Z,997.67
2016-10-23T06:56:33.224Z,997.67
2016-10-23T06:57:33.239Z,997.7
2016-10-23T06:58:33.254Z,997.71
2016-10-23T06:59:33.267Z,997.7
2016-10-23T07:00:33.283Z,997.7
2016-10-23T07:01:33.291Z,997.7
2016-10-23T07:02:33.309Z,997.66
2016-10-23T07:03:33.321Z,997.66
2016-10-23T07:04:33.337Z,997.7
2016-10-23T07:05:33.352Z,997.65
2016-10-23T07:06:33.367Z,997.66
2016-10-23T07:07:33.385Z,997.66
2016-10-23T07:08:33.398Z,997.66
2016-10-23T07:09:33.416Z,997.63
2016-10-23T07:10:33.427Z,997.64
2016-10-23T07:11:33.442Z,997.65
2016-10-23T07:12:33.457Z,997.63
2016-10-23T07:13:33.471Z,997.6
2016-10-23T07:14:33.487Z,997.62
2016-10-23T07:15:33.502Z,997.66
2016-10-23T07:16:33.510Z,997.61
2016-10-23T07:17:33.532Z,997.57
2016-10-23T07:18:33.546Z,997.59
2016-10-23T07:19:33.563Z,997.55
2016-10-23T07:20:33.573Z,997.59
2016-10-23T07:21:33.591Z,997.62
2016-10-23T07:22:33.600Z,997.59
2016-10-23T07:23:33.622Z,997.58
2016-10-23T07:24:33.643Z,997.61
2016-10-23T07:25:33.648Z,997.59
2016-10-23T07:26:33.666Z,997.6
2016-10-23T07:27:33.680Z,997.62
2016-10-23T07:28:33.695Z,997.58
2016-10-23T07:29:33.708Z,997.57
2016-10-23T07:30:33.724Z,997.63
2016-10-23T07:31:33.732Z,997.62
2016-10-23T07:32:33.763Z,997.63
2016-10-23T07:33:33.765Z,997.65
2016-10-23T07:34:33.783Z,997.67
2016-10-23T07:35:33.797Z,997.71
2016-10-23T07:36:33.814Z,997.71
2016-10-23T07:37:33.826Z,997.77
2016-10-23T07:38:33.845Z,997.78
2016-10-23T07:39:33.859Z,997.77
2016-10-23T07:40:33.874Z,997.78
2016-10-23T07:41:33.887Z,997.79
2016-10-23T07:42:33.900Z,997.79
2016-10-23T07:43:33.915Z,997.74
2016-10-23T07:44:33.939Z,997.77
2016-10-23T07:45:33.950Z,997.77
2016-10-23T07:46:33.965Z,997.75
2016-10-23T07:47:33.974Z,997.78
2016-10-23T07:48:33.993Z,997.8
2016-10-23T07:49:34.004Z,997.81
2016-10-23T07:50:34.021Z,997.84
2016-10-23T07:51:34.033Z,997.82
2016-10-23T07:52:34.056Z,997.78
2016-10-23T07:53:34.067Z,997.83
2016-10-23T07:54:34.084Z,997.82
2016-10-23T07:55:34.094Z,997.82
2016-10-23T07:56:34.111Z,997.82
2016-10-23T07:57:34.125Z,997.82
2016-10-23T07:58:34.151Z,997.81
2016-10-23T07:59:34.156Z,997.81
2016-10-23T08:00:34.173Z,997.79
2016-10-23T08:01:34.187Z,997.81
2016-10-23T08:02:34.206Z,997.77
2016-10-23T08:03:34.217Z,997.79
2016-10-23T08:04:34.234Z,997.8
2016-10-23T08:05:34.279Z,997.78
2016-10-23T08:06:34.269Z,997.77
2016-10-23T08:07:34.283Z,997.79
2016-10-23T08:08:34.295Z,997.8
2016-10-23T08:09:34.314Z,997.82
2016-10-23T08:10:34.326Z,997.82
2016-10-23T08:11:34.348Z,997.83
2016-10-23T08:12:34.361Z,997.84
2016-10-23T08:13:34.376Z,997.87
2016-10-23T08:14:34.402Z,997.85
2016-10-23T08:15:34.405Z,997.87
2016-10-23T08:16:34.422Z,997.88
2016-10-23T08:17:34.436Z,997.84
2016-10-23T08:18:34.454Z,997.91
2016-10-23T08:19:34.465Z,997.85
2016-10-23T08:20:34.483Z,997.9
2016-10-23T08:21:34.500Z,997.89
2016-10-23T08:22:34.517Z,997.88
2016-10-23T08:23:34.531Z,997.85
2016-10-23T08:24:34.547Z,997.86
2016-10-23T08:25:34.564Z,997.86
2016-10-23T08:26:34.587Z,997.86
2016-10-23T08:27:34.591Z,997.86
2016-10-23T08:28:34.609Z,997.89
2016-10-23T08:29:34.629Z,997.94
2016-10-23T08:30:34.644Z,997.95
2016-10-23T08:31:34.656Z,997.94
2016-10-23T08:32:34.672Z,997.92
2016-10-23T08:33:34.685Z,997.95
2016-10-23T08:34:34.709Z,997.97
2016-10-23T08:35:34.718Z,997.98
2016-10-23T08:36:34.738Z,997.95
2016-10-23T08:37:34.749Z,997.96
2016-10-23T08:38:34.771Z,997.98
2016-10-23T08:39:34.784Z,997.97
2016-10-23T08:40:34.799Z,997.93
2016-10-23T08:41:34.812Z,997.99
2016-10-23T08:42:34.836Z,997.99
2016-10-23T08:43:34.848Z,998
2016-10-23T08:44:34.863Z,998
2016-10-23T08:45:34.884Z,998.01
2016-10-23T08:46:34.895Z,998
2016-10-23T08:47:34.916Z,998.03
2016-10-23T08:48:34.925Z,998.06
2016-10-23T08:49:34.940Z,998.04
2016-10-23T08:50:34.961Z,998.04
2016-10-23T08:51:34.974Z,998.1
2016-10-23T08:52:34.986Z,998.08
2016-10-23T08:53:35.009Z,998.1
2016-10-23T08:54:35.027Z,998.1
2016-10-23T08:55:35.044Z,998.06
2016-10-23T08:56:35.059Z,998.11
2016-10-23T08:57:35.075Z,998.12
2016-10-23T08:58:35.085Z,998.16
2016-10-23T08:59:35.101Z,998.17
2016-10-23T09:00:35.122Z,998.24
2016-10-23T09:01:35.136Z,998.24
2016-10-23T09:02:35.156Z,998.22
2016-10-23T09:03:35.167Z,998.23
2016-10-23T09:04:35.185Z,998.26
2016-10-23T09:05:35.198Z,998.17
2016-10-23T09:06:35.222Z,998.13
2016-10-23T09:07:35.236Z,998.18
2016-10-23T09:08:35.249Z,998.2
2016-10-23T09:09:35.263Z,998.26
2016-10-23T09:10:35.279Z,998.22
2016-10-23T09:11:35.299Z,998.23
2016-10-23T09:12:35.319Z,998.22
2016-10-23T09:13:35.330Z,998.13
2016-10-23T09:14:35.346Z,998.14
2016-10-23T09:15:35.366Z,998.12
2016-10-23T09:16:35.386Z,998.15
2016-10-23T09:17:35.394Z,998.16
2016-10-23T09:18:35.417Z,998.13
2016-10-23T09:19:35.427Z,998.16
2016-10-23T09:20:35.447Z,998.2
2016-10-23T09:21:35.466Z,998.22
2016-10-23T09:22:35.482Z,998.25
2016-10-23T09:23:35.501Z,998.15
2016-10-23T09:24:35.515Z,998.22
2016-10-23T09:25:35.529Z,998.2
2016-10-23T09:26:35.556Z,998.26
2016-10-23T09:27:35.567Z,998.24
2016-10-23T09:28:35.580Z,998.3
2016-10-23T09:29:35.597Z,998.23
2016-10-23T09:30:35.614Z,998.21
2016-10-23T09:31:35.629Z,998.27
2016-10-23T09:32:35.646Z,998.22
2016-10-23T09:33:35.665Z,998.28
2016-10-23T09:34:35.687Z,998.29
2016-10-23T09:35:35.701Z,998.25
2016-10-23T09:36:35.711Z,998.18
2016-10-23T09:37:35.726Z,998.2
2016-10-23T09:38:35.751Z,998.17
2016-10-23T09:39:35.758Z,998.16
2016-10-23T09:40:35.782Z,998.13
2016-10-23T09:41:35.795Z,998.1
2016-10-23T09:42:35.818Z,998.13
2016-10-23T09:43:35.829Z,998.11
2016-10-23T09:44:35.845Z,998.05
2016-10-23T09:45:35.858Z,998.06
2016-10-23T09:46:35.881Z,998.03
2016-10-23T09:47:35.898Z,998.03
2016-10-23T09:48:35.910Z,998.07
2016-10-23T09:49:35.932Z,998.06
2016-10-23T09:50:35.947Z,998.03
2016-10-23T09:51:35.960Z,998.01
2016-10-23T09:52:35.984Z,998.02
2016-10-23T09:53:35.997Z,998.02
2016-10-23T09:54:36.016Z,998.03
2016-10-23T09:55:36.033Z,998.01
2016-10-23T09:56:36.059Z,998
2016-10-23T09:57:36.064Z,998.02
2016-10-23T09:58:36.084Z,998.04
2016-10-23T09:59:36.097Z,998.02
2016-10-23T10:00:36.121Z,998.04
2016-10-23T10:01:36.133Z,998.02
2016-10-23T10:02:36.150Z,998
2016-10-23T10:03:36.165Z,998.07
2016-10-23T10:04:36.183Z,998.01
2016-10-23T10:05:36.204Z,998.01
2016-10-23T10:06:36.215Z,998.01
2016-10-23T10:07:36.232Z,998.02
2016-10-23T10:08:36.251Z,998.06
2016-10-23T10:09:36.266Z,997.99
2016-10-23T10:10:36.284Z,998.02
2016-10-23T10:11:36.302Z,998.02
2016-10-23T10:12:36.321Z,998.03
2016-10-23T10:13:36.340Z,998.02
2016-10-23T10:14:36.351Z,998.03
2016-10-23T10:15:36.372Z,998.01
2016-10-23T10:16:36.389Z,998.03
2016-10-23T10:17:36.407Z,998.01
2016-10-23T10:18:36.423Z,998.05
2016-10-23T10:19:36.435Z,998.01
2016-10-23T10:20:36.457Z,997.98
2016-10-23T10:21:36.469Z,998.03
2016-10-23T10:22:36.491Z,998.01
2016-10-23T10:23:36.509Z,997.96
2016-10-23T10:24:36.535Z,997.92
2016-10-23T10:25:36.539Z,997.94
2016-10-23T10:26:36.559Z,997.96
2016-10-23T10:27:36.575Z,997.92
2016-10-23T10:28:36.593Z,997.88
2016-10-23T10:29:36.611Z,997.9
2016-10-23T10:30:36.626Z,997.88
2016-10-23T10:31:36.643Z,997.86
2016-10-23T10:32:36.658Z,997.88
2016-10-23T10:33:36.673Z,997.9
2016-10-23T10:34:36.686Z,997.78
2016-10-23T10:35:36.702Z,997.79
2016-10-23T10:36:36.723Z,997.79
2016-10-23T10:37:36.741Z,997.81
2016-10-23T10:38:36.754Z,997.79
2016-10-23T10:39:36.773Z,997.83
2016-10-23T10:40:36.787Z,997.83
2016-10-23T10:41:36.806Z,997.8
2016-10-23T10:42:36.820Z,997.8
2016-10-23T10:43:36.834Z,997.82
2016-10-23T10:44:36.851Z,997.78
2016-10-23T10:45:36.871Z,997.78
2016-10-23T10:46:36.884Z,997.75
2016-10-23T10:47:36.905Z,997.77
2016-10-23T10:48:36.923Z,997.76
2016-10-23T10:49:36.934Z,997.79
2016-10-23T10:50:36.956Z,997.73
2016-10-23T10:51:36.970Z,997.71
2016-10-23T10:52:36.988Z,997.67
2016-10-23T10:53:37.006Z,997.67
2016-10-23T10:54:37.021Z,997.71
2016-10-23T10:55:37.036Z,997.69
2016-10-23T10:56:37.049Z,997.69
2016-10-23T10:57:37.072Z,997.69
2016-10-23T10:58:37.091Z,997.64
2016-10-23T10:59:37.105Z,997.66
2016-10-23T11:00:37.116Z,997.65
2016-10-23T11:01:37.133Z,997.61
2016-10-23T11:02:37.156Z,997.6
2016-10-23T11:03:37.170Z,997.65
2016-10-23T11:04:37.188Z,997.66
2016-10-23T11:05:37.203Z,997.6
2016-10-23T11:06:37.217Z,997.56
2016-10-23T11:07:37.238Z,997.56
2016-10-23T11:08:37.259Z,997.56
2016-10-23T11:09:37.272Z,997.56
2016-10-23T11:10:37.282Z,997.52
2016-10-23T11:11:37.295Z,997.52
2016-10-23T11:12:37.317Z,997.49
2016-10-23T11:13:37.330Z,997.48
2016-10-23T11:14:37.349Z,997.49
2016-10-23T11:15:37.368Z,997.46
2016-10-23T11:16:37.395Z,997.41
2016-10-23T11:17:37.402Z,997.42
2016-10-23T11:18:37.420Z,997.41
2016-10-23T11:19:37.434Z,997.37
2016-10-23T11:20:37.454Z,997.36
2016-10-23T11:21:37.465Z,997.36
2016-10-23T11:22:37.478Z,997.35
2016-10-23T11:23:37.495Z,997.29
2016-10-23T11:24:37.518Z,997.32
2016-10-23T11:25:37.534Z,997.32
2016-10-23T11:26:37.551Z,997.29
2016-10-23T11:27:37.567Z,997.32
2016-10-23T11:28:37.583Z,997.33
2016-10-23T11:29:37.601Z,997.31
2016-10-23T11:30:37.620Z,997.32
2016-10-23T11:31:37.630Z,997.32
2016-10-23T11:32:37.650Z,997.31
2016-10-23T11:33:37.669Z,997.33
2016-10-23T11:34:37.681Z,997.33
2016-10-23T11:35:37.699Z,997.32
2016-10-23T11:36:37.713Z,997.26
2016-10-23T11:37:37.731Z,997.24
2016-10-23T11:38:37.754Z,997.26
2016-10-23T11:39:37.772Z,997.29
2016-10-23T11:40:37.790Z,997.3
2016-10-23T11:41:37.799Z,997.26
2016-10-23T11:42:37.821Z,997.29
2016-10-23T11:43:37.834Z,997.3
2016-10-23T11:44:37.854Z,997.28
2016-10-23T11:45:37.870Z,997.28
2016-10-23T11:46:37.888Z,997.24
2016-10-23T11:47:37.898Z,997.27
2016-10-23T11:48:37.914Z,997.23
2016-10-23T11:49:37.935Z,997.23
2016-10-23T11:50:37.957Z,997.25
2016-10-23T11:51:37.970Z,997.22
2016-10-23T11:52:37.987Z,997.24
2016-10-23T11:53:38.001Z,997.25
2016-10-23T11:54:38.018Z,997.24
2016-10-23T11:55:38.033Z,997.24
2016-10-23T11:56:38.055Z,997.23
2016-10-23T11:57:38.075Z,997.25
2016-10-23T11:58:38.083Z,997.19
2016-10-23T11:59:38.109Z,997.18
2016-10-23T12:00:38.122Z,997.2
2016-10-23T12:01:38.145Z,997.2
2016-10-23T12:02:38.155Z,997.16
2016-10-23T12:03:38.179Z,997.2
2016-10-23T12:04:38.194Z,997.12
2016-10-23T12:05:38.210Z,997.14
2016-10-23T12:06:38.222Z,997.2
2016-10-23T12:07:38.243Z,997.13
2016-10-23T12:08:38.267Z,997.16
2016-10-23T12:09:38.276Z,997.14
2016-10-23T12:10:38.294Z,997.14
2016-10-23T12:11:38.310Z,997.1
2016-10-23T12:12:38.325Z,997.11
2016-10-23T12:13:38.342Z,997.15
2016-10-23T12:14:38.371Z,997.14
2016-10-23T12:15:38.378Z,997.16
2016-10-23T12:16:38.397Z,997.14
2016-10-23T12:17:38.413Z,997.09
2016-10-23T12:18:38.439Z,997.12
2016-10-23T12:19:38.451Z,997.06
2016-10-23T12:20:38.469Z,997.09
2016-10-23T12:21:38.484Z,997.12
2016-10-23T12:22:38.502Z,997.08
2016-10-23T12:23:38.519Z,997.11
2016-10-23T12:24:38.532Z,997.09
2016-10-23T12:25:38.554Z,997.09
2016-10-23T12:26:38.570Z,997.09
2016-10-23T12:27:38.588Z,997.05
2016-10-23T12:28:38.602Z,997.08
2016-10-23T12:29:38.623Z,997.04
2016-10-23T12:30:38.643Z,996.99
2016-10-23T12:31:38.657Z,997
2016-10-23T12:32:38.675Z,996.97